sensor_id;sensor_type;location;lat;lon;timestamp;P1;durP1;ratioP1;P2;durP2;ratioP2
13793;SDS011;31160;49.500;7.772;2023-03-23T00:01:06;1.43;;;0.50;;
13793;SDS011;31160;49.500;7.772;2023-03-23T00:03:35;1.17;;;0.60;;
13793;SDS011;31160;49.500;7.772;2023-03-23T00:06:02;1.13;;;0.47;;
13793;SDS011;31160;49.500;7.772;2023-03-23T00:08:33;1.60;;;0.80;;
13793;SDS011;31160;49.500;7.772;2023-03-23T00:11:14;2.30;;;0.43;;
13793;SDS011;31160;49.500;7.772;2023-03-23T00:13:42;1.47;;;0.50;;
13793;SDS011;31160;49.500;7.772;2023-03-23T00:16:09;0.60;;;0.50;;
13793;SDS011;31160;49.500;7.772;2023-03-23T00:18:45;0.80;;;0.50;;
13793;SDS011;31160;49.500;7.772;2023-03-23T00:21:13;1.10;;;0.50;;
13793;SDS011;31160;49.500;7.772;2023-03-23T00:23:39;1.77;;;0.60;;
13793;SDS011;31160;49.500;7.772;2023-03-23T00:26:05;2.63;;;0.40;;
13793;SDS011;31160;49.500;7.772;2023-03-23T00:28:31;1.13;;;0.47;;
13793;SDS011;31160;49.500;7.772;2023-03-23T00:31:00;0.93;;;0.60;;
13793;SDS011;31160;49.500;7.772;2023-03-23T00:33:29;1.50;;;0.97;;
13793;SDS011;31160;49.500;7.772;2023-03-23T00:35:58;0.77;;;0.50;;
13793;SDS011;31160;49.500;7.772;2023-03-23T00:38:24;0.73;;;0.57;;
13793;SDS011;31160;49.500;7.772;2023-03-23T00:40:52;0.83;;;0.47;;
13793;SDS011;31160;49.500;7.772;2023-03-23T00:43:20;0.90;;;0.60;;
13793;SDS011;31160;49.500;7.772;2023-03-23T00:45:49;0.93;;;0.60;;
13793;SDS011;31160;49.500;7.772;2023-03-23T00:48:19;1.20;;;0.70;;
13793;SDS011;31160;49.500;7.772;2023-03-23T00:50:45;0.57;;;0.50;;
13793;SDS011;31160;49.500;7.772;2023-03-23T00:53:11;1.83;;;0.60;;
13793;SDS011;31160;49.500;7.772;2023-03-23T00:55:37;1.20;;;0.60;;
13793;SDS011;31160;49.500;7.772;2023-03-23T00:58:05;1.13;;;0.50;;
13793;SDS011;31160;49.500;7.772;2023-03-23T01:00:31;1.30;;;0.83;;
13793;SDS011;31160;49.500;7.772;2023-03-23T01:02:56;0.60;;;0.50;;
13793;SDS011;31160;49.500;7.772;2023-03-23T01:05:22;1.33;;;0.60;;
13793;SDS011;31160;49.500;7.772;2023-03-23T01:07:50;0.90;;;0.50;;
13793;SDS011;31160;49.500;7.772;2023-03-23T01:10:15;1.33;;;0.60;;
13793;SDS011;31160;49.500;7.772;2023-03-23T01:12:46;0.80;;;0.60;;
13793;SDS011;31160;49.500;7.772;2023-03-23T01:15:13;1.07;;;0.63;;
13793;SDS011;31160;49.500;7.772;2023-03-23T01:17:41;0.87;;;0.40;;
13793;SDS011;31160;49.500;7.772;2023-03-23T01:20:07;1.23;;;0.60;;
13793;SDS011;31160;49.500;7.772;2023-03-23T01:22:33;1.30;;;0.70;;
13793;SDS011;31160;49.500;7.772;2023-03-23T01:24:59;1.40;;;0.63;;
13793;SDS011;31160;49.500;7.772;2023-03-23T01:27:25;2.03;;;0.43;;
13793;SDS011;31160;49.500;7.772;2023-03-23T01:29:51;1.00;;;0.60;;
13793;SDS011;31160;49.500;7.772;2023-03-23T01:32:16;1.10;;;0.60;;
13793;SDS011;31160;49.500;7.772;2023-03-23T01:34:42;1.60;;;0.87;;
13793;SDS011;31160;49.500;7.772;2023-03-23T01:37:08;1.73;;;0.77;;
13793;SDS011;31160;49.500;7.772;2023-03-23T01:39:37;1.07;;;0.63;;
13793;SDS011;31160;49.500;7.772;2023-03-23T01:42:03;0.97;;;0.80;;
13793;SDS011;31160;49.500;7.772;2023-03-23T01:46:59;1.00;;;0.67;;
13793;SDS011;31160;49.500;7.772;2023-03-23T01:49:33;1.30;;;0.70;;
13793;SDS011;31160;49.500;7.772;2023-03-23T01:52:04;2.83;;;0.90;;
13793;SDS011;31160;49.500;7.772;2023-03-23T01:54:38;1.70;;;0.73;;
13793;SDS011;31160;49.500;7.772;2023-03-23T01:57:06;1.30;;;0.57;;
13793;SDS011;31160;49.500;7.772;2023-03-23T01:59:45;2.00;;;0.67;;
13793;SDS011;31160;49.500;7.772;2023-03-23T02:02:17;1.40;;;0.70;;
13793;SDS011;31160;49.500;7.772;2023-03-23T02:04:45;3.83;;;0.80;;
13793;SDS011;31160;49.500;7.772;2023-03-23T02:07:11;0.73;;;0.60;;
13793;SDS011;31160;49.500;7.772;2023-03-23T02:09:39;1.80;;;0.80;;
13793;SDS011;31160;49.500;7.772;2023-03-23T02:12:05;1.37;;;0.60;;
13793;SDS011;31160;49.500;7.772;2023-03-23T02:14:32;1.47;;;0.60;;
13793;SDS011;31160;49.500;7.772;2023-03-23T02:17:06;1.27;;;0.70;;
13793;SDS011;31160;49.500;7.772;2023-03-23T02:24:54;1.37;;;0.70;;
13793;SDS011;31160;49.500;7.772;2023-03-23T02:30:03;2.03;;;0.80;;
13793;SDS011;31160;49.500;7.772;2023-03-23T02:32:45;1.00;;;0.70;;
13793;SDS011;31160;49.500;7.772;2023-03-23T02:35:35;1.17;;;0.70;;
13793;SDS011;31160;49.500;7.772;2023-03-23T02:38:11;0.80;;;0.60;;
13793;SDS011;31160;49.500;7.772;2023-03-23T02:40:44;4.23;;;0.70;;
13793;SDS011;31160;49.500;7.772;2023-03-23T02:43:19;1.30;;;0.40;;
13793;SDS011;31160;49.500;7.772;2023-03-23T02:45:49;1.10;;;0.70;;
13793;SDS011;31160;49.500;7.772;2023-03-23T02:48:17;1.63;;;0.60;;
13793;SDS011;31160;49.500;7.772;2023-03-23T02:50:47;2.27;;;0.80;;
13793;SDS011;31160;49.500;7.772;2023-03-23T02:53:18;1.23;;;0.67;;
13793;SDS011;31160;49.500;7.772;2023-03-23T02:55:47;1.27;;;0.63;;
13793;SDS011;31160;49.500;7.772;2023-03-23T02:58:16;1.27;;;0.70;;
13793;SDS011;31160;49.500;7.772;2023-03-23T03:00:44;2.70;;;0.83;;
13793;SDS011;31160;49.500;7.772;2023-03-23T03:03:15;1.20;;;0.70;;
13793;SDS011;31160;49.500;7.772;2023-03-23T03:05:48;1.10;;;0.70;;
13793;SDS011;31160;49.500;7.772;2023-03-23T03:13:33;1.40;;;0.80;;
13793;SDS011;31160;49.500;7.772;2023-03-23T03:21:35;1.20;;;0.83;;
13793;SDS011;31160;49.500;7.772;2023-03-23T03:24:06;1.90;;;0.60;;
13793;SDS011;31160;49.500;7.772;2023-03-23T03:26:37;0.70;;;0.60;;
13793;SDS011;31160;49.500;7.772;2023-03-23T03:29:29;3.17;;;0.97;;
13793;SDS011;31160;49.500;7.772;2023-03-23T03:32:04;2.20;;;0.60;;
13793;SDS011;31160;49.500;7.772;2023-03-23T03:34:32;2.03;;;0.80;;
13793;SDS011;31160;49.500;7.772;2023-03-23T03:36:59;1.30;;;0.70;;
13793;SDS011;31160;49.500;7.772;2023-03-23T03:39:26;1.00;;;0.67;;
13793;SDS011;31160;49.500;7.772;2023-03-23T03:41:52;0.90;;;0.70;;
13793;SDS011;31160;49.500;7.772;2023-03-23T03:44:19;1.10;;;0.80;;
13793;SDS011;31160;49.500;7.772;2023-03-23T03:46:45;1.63;;;0.70;;
13793;SDS011;31160;49.500;7.772;2023-03-23T03:49:11;2.70;;;0.80;;
13793;SDS011;31160;49.500;7.772;2023-03-23T03:51:39;0.93;;;0.77;;
13793;SDS011;31160;49.500;7.772;2023-03-23T03:54:08;1.13;;;0.60;;
13793;SDS011;31160;49.500;7.772;2023-03-23T03:56:35;1.20;;;0.70;;
13793;SDS011;31160;49.500;7.772;2023-03-23T03:59:25;2.40;;;1.07;;
13793;SDS011;31160;49.500;7.772;2023-03-23T04:02:24;2.40;;;1.37;;
13793;SDS011;31160;49.500;7.772;2023-03-23T04:04:51;2.60;;;1.00;;
13793;SDS011;31160;49.500;7.772;2023-03-23T04:07:18;0.93;;;0.80;;
13793;SDS011;31160;49.500;7.772;2023-03-23T04:09:44;0.97;;;0.70;;
13793;SDS011;31160;49.500;7.772;2023-03-23T04:12:17;1.30;;;0.90;;
13793;SDS011;31160;49.500;7.772;2023-03-23T04:14:55;1.33;;;0.80;;
13793;SDS011;31160;49.500;7.772;2023-03-23T04:17:24;1.30;;;0.90;;
13793;SDS011;31160;49.500;7.772;2023-03-23T04:19:51;1.10;;;0.80;;
13793;SDS011;31160;49.500;7.772;2023-03-23T04:22:18;1.47;;;0.90;;
13793;SDS011;31160;49.500;7.772;2023-03-23T04:24:44;0.97;;;0.73;;
13793;SDS011;31160;49.500;7.772;2023-03-23T04:27:15;3.80;;;1.00;;
13793;SDS011;31160;49.500;7.772;2023-03-23T04:29:42;1.70;;;0.93;;
13793;SDS011;31160;49.500;7.772;2023-03-23T04:32:14;2.00;;;1.07;;
13793;SDS011;31160;49.500;7.772;2023-03-23T04:34:48;1.57;;;1.03;;
13793;SDS011;31160;49.500;7.772;2023-03-23T04:37:14;1.23;;;0.83;;
13793;SDS011;31160;49.500;7.772;2023-03-23T04:39:40;1.80;;;0.93;;
13793;SDS011;31160;49.500;7.772;2023-03-23T04:42:07;1.23;;;0.80;;
13793;SDS011;31160;49.500;7.772;2023-03-23T04:45:13;1.73;;;0.90;;
13793;SDS011;31160;49.500;7.772;2023-03-23T04:47:48;2.23;;;0.87;;
13793;SDS011;31160;49.500;7.772;2023-03-23T04:50:23;1.70;;;1.07;;
13793;SDS011;31160;49.500;7.772;2023-03-23T04:52:51;1.27;;;0.97;;
13793;SDS011;31160;49.500;7.772;2023-03-23T04:55:19;2.10;;;1.20;;
13793;SDS011;31160;49.500;7.772;2023-03-23T04:57:53;1.57;;;1.17;;
13793;SDS011;31160;49.500;7.772;2023-03-23T05:00:39;1.60;;;1.10;;
13793;SDS011;31160;49.500;7.772;2023-03-23T05:03:06;2.20;;;1.20;;
13793;SDS011;31160;49.500;7.772;2023-03-23T05:05:33;9.30;;;5.67;;
13793;SDS011;31160;49.500;7.772;2023-03-23T05:08:04;1.13;;;1.03;;
13793;SDS011;31160;49.500;7.772;2023-03-23T05:10:33;3.70;;;1.10;;
13793;SDS011;31160;49.500;7.772;2023-03-23T05:13:05;4.93;;;1.50;;
13793;SDS011;31160;49.500;7.772;2023-03-23T05:15:31;2.20;;;0.93;;
13793;SDS011;31160;49.500;7.772;2023-03-23T05:17:59;1.60;;;0.90;;
13793;SDS011;31160;49.500;7.772;2023-03-23T05:20:25;3.50;;;1.03;;
13793;SDS011;31160;49.500;7.772;2023-03-23T05:23:08;1.80;;;0.90;;
13793;SDS011;31160;49.500;7.772;2023-03-23T05:25:35;2.07;;;0.90;;
13793;SDS011;31160;49.500;7.772;2023-03-23T05:28:10;1.20;;;0.90;;
13793;SDS011;31160;49.500;7.772;2023-03-23T05:30:42;2.13;;;0.90;;
13793;SDS011;31160;49.500;7.772;2023-03-23T05:33:10;3.97;;;1.10;;
13793;SDS011;31160;49.500;7.772;2023-03-23T05:36:07;1.73;;;0.97;;
13793;SDS011;31160;49.500;7.772;2023-03-23T05:38:54;2.67;;;1.00;;
13793;SDS011;31160;49.500;7.772;2023-03-23T05:41:22;3.87;;;1.40;;
13793;SDS011;31160;49.500;7.772;2023-03-23T05:43:49;3.83;;;1.20;;
13793;SDS011;31160;49.500;7.772;2023-03-23T05:46:25;2.17;;;0.90;;
13793;SDS011;31160;49.500;7.772;2023-03-23T05:48:55;2.90;;;1.00;;
13793;SDS011;31160;49.500;7.772;2023-03-23T05:51:28;2.90;;;1.27;;
13793;SDS011;31160;49.500;7.772;2023-03-23T05:53:55;2.03;;;1.20;;
13793;SDS011;31160;49.500;7.772;2023-03-23T05:56:21;5.77;;;1.20;;
13793;SDS011;31160;49.500;7.772;2023-03-23T05:58:59;2.50;;;1.10;;
13793;SDS011;31160;49.500;7.772;2023-03-23T06:01:27;3.83;;;1.40;;
13793;SDS011;31160;49.500;7.772;2023-03-23T06:03:53;5.57;;;1.50;;
13793;SDS011;31160;49.500;7.772;2023-03-23T06:06:28;2.07;;;1.07;;
13793;SDS011;31160;49.500;7.772;2023-03-23T06:09:05;2.73;;;1.03;;
13793;SDS011;31160;49.500;7.772;2023-03-23T06:11:42;1.70;;;1.50;;
13793;SDS011;31160;49.500;7.772;2023-03-23T06:14:31;2.97;;;1.30;;
13793;SDS011;31160;49.500;7.772;2023-03-23T06:16:57;2.20;;;1.40;;
13793;SDS011;31160;49.500;7.772;2023-03-23T06:19:23;2.70;;;1.40;;
13793;SDS011;31160;49.500;7.772;2023-03-23T06:22:06;2.87;;;1.40;;
13793;SDS011;31160;49.500;7.772;2023-03-23T06:24:52;2.73;;;1.67;;
13793;SDS011;31160;49.500;7.772;2023-03-23T06:27:23;3.40;;;1.67;;
13793;SDS011;31160;49.500;7.772;2023-03-23T06:29:49;2.60;;;1.60;;
13793;SDS011;31160;49.500;7.772;2023-03-23T06:32:15;14.40;;;6.57;;
13793;SDS011;31160;49.500;7.772;2023-03-23T06:34:42;23.70;;;12.37;;
13793;SDS011;31160;49.500;7.772;2023-03-23T06:37:32;20.97;;;10.47;;
13793;SDS011;31160;49.500;7.772;2023-03-23T06:40:37;25.30;;;11.20;;
13793;SDS011;31160;49.500;7.772;2023-03-23T06:43:03;8.27;;;4.17;;
13793;SDS011;31160;49.500;7.772;2023-03-23T06:45:50;2.93;;;1.90;;
13793;SDS011;31160;49.500;7.772;2023-03-23T06:48:35;2.50;;;1.57;;
13793;SDS011;31160;49.500;7.772;2023-03-23T06:51:03;1.83;;;1.50;;
13793;SDS011;31160;49.500;7.772;2023-03-23T06:55:59;2.83;;;1.40;;
13793;SDS011;31160;49.500;7.772;2023-03-23T06:58:26;6.47;;;1.97;;
13793;SDS011;31160;49.500;7.772;2023-03-23T07:00:55;3.27;;;1.57;;
13793;SDS011;31160;49.500;7.772;2023-03-23T07:03:27;2.00;;;1.53;;
13793;SDS011;31160;49.500;7.772;2023-03-23T07:05:54;2.03;;;1.50;;
13793;SDS011;31160;49.500;7.772;2023-03-23T07:08:23;5.90;;;2.67;;
13793;SDS011;31160;49.500;7.772;2023-03-23T07:10:50;2.53;;;1.63;;
13793;SDS011;31160;49.500;7.772;2023-03-23T07:13:21;3.77;;;1.60;;
13793;SDS011;31160;49.500;7.772;2023-03-23T07:15:50;4.03;;;1.90;;
13793;SDS011;31160;49.500;7.772;2023-03-23T07:18:17;4.00;;;1.70;;
13793;SDS011;31160;49.500;7.772;2023-03-23T07:20:52;5.73;;;2.00;;
13793;SDS011;31160;49.500;7.772;2023-03-23T07:23:20;2.17;;;1.37;;
13793;SDS011;31160;49.500;7.772;2023-03-23T07:26:06;6.20;;;1.20;;
13793;SDS011;31160;49.500;7.772;2023-03-23T07:28:44;2.13;;;1.20;;
13793;SDS011;31160;49.500;7.772;2023-03-23T07:31:30;1.40;;;1.10;;
13793;SDS011;31160;49.500;7.772;2023-03-23T07:33:56;1.93;;;1.50;;
13793;SDS011;31160;49.500;7.772;2023-03-23T07:36:27;4.03;;;1.30;;
13793;SDS011;31160;49.500;7.772;2023-03-23T07:38:53;2.83;;;1.10;;
13793;SDS011;31160;49.500;7.772;2023-03-23T07:41:20;1.97;;;1.40;;
13793;SDS011;31160;49.500;7.772;2023-03-23T07:43:48;3.57;;;1.80;;
13793;SDS011;31160;49.500;7.772;2023-03-23T07:46:30;1.93;;;1.50;;
13793;SDS011;31160;49.500;7.772;2023-03-23T07:49:12;2.87;;;1.80;;
13793;SDS011;31160;49.500;7.772;2023-03-23T07:51:44;2.67;;;1.30;;
13793;SDS011;31160;49.500;7.772;2023-03-23T07:54:12;1.30;;;1.10;;
13793;SDS011;31160;49.500;7.772;2023-03-23T07:56:54;1.93;;;1.10;;
13793;SDS011;31160;49.500;7.772;2023-03-23T07:59:23;2.97;;;1.27;;
13793;SDS011;31160;49.500;7.772;2023-03-23T08:01:49;1.87;;;1.00;;
13793;SDS011;31160;49.500;7.772;2023-03-23T08:04:42;2.27;;;1.40;;
13793;SDS011;31160;49.500;7.772;2023-03-23T08:07:36;5.17;;;1.10;;
13793;SDS011;31160;49.500;7.772;2023-03-23T08:10:28;2.20;;;0.93;;
13793;SDS011;31160;49.500;7.772;2023-03-23T08:12:55;2.23;;;1.10;;
13793;SDS011;31160;49.500;7.772;2023-03-23T08:15:40;2.03;;;1.23;;
13793;SDS011;31160;49.500;7.772;2023-03-23T08:18:24;3.90;;;1.40;;
13793;SDS011;31160;49.500;7.772;2023-03-23T08:21:13;4.20;;;1.20;;
13793;SDS011;31160;49.500;7.772;2023-03-23T08:23:50;1.60;;;1.03;;
13793;SDS011;31160;49.500;7.772;2023-03-23T08:26:35;1.80;;;1.07;;
13793;SDS011;31160;49.500;7.772;2023-03-23T08:29:22;1.60;;;1.40;;
13793;SDS011;31160;49.500;7.772;2023-03-23T08:32:18;2.00;;;1.40;;
13793;SDS011;31160;49.500;7.772;2023-03-23T08:34:52;3.80;;;1.23;;
13793;SDS011;31160;49.500;7.772;2023-03-23T08:37:21;4.40;;;1.23;;
13793;SDS011;31160;49.500;7.772;2023-03-23T08:40:17;2.33;;;1.33;;
13793;SDS011;31160;49.500;7.772;2023-03-23T08:43:03;2.70;;;1.30;;
13793;SDS011;31160;49.500;7.772;2023-03-23T08:45:50;5.67;;;1.30;;
13793;SDS011;31160;49.500;7.772;2023-03-23T08:48:35;1.57;;;0.97;;
13793;SDS011;31160;49.500;7.772;2023-03-23T08:51:20;3.93;;;1.23;;
13793;SDS011;31160;49.500;7.772;2023-03-23T08:54:10;4.93;;;1.40;;
13793;SDS011;31160;49.500;7.772;2023-03-23T08:56:49;2.10;;;1.00;;
13793;SDS011;31160;49.500;7.772;2023-03-23T08:59:34;2.27;;;1.00;;
13793;SDS011;31160;49.500;7.772;2023-03-23T09:02:23;2.20;;;1.33;;
13793;SDS011;31160;49.500;7.772;2023-03-23T09:05:12;4.50;;;1.17;;
13793;SDS011;31160;49.500;7.772;2023-03-23T09:08:01;2.50;;;1.00;;
13793;SDS011;31160;49.500;7.772;2023-03-23T09:10:29;2.50;;;1.00;;
13793;SDS011;31160;49.500;7.772;2023-03-23T09:12:58;1.47;;;0.97;;
13793;SDS011;31160;49.500;7.772;2023-03-23T09:15:23;5.10;;;1.37;;
13793;SDS011;31160;49.500;7.772;2023-03-23T09:17:51;1.97;;;1.00;;
13793;SDS011;31160;49.500;7.772;2023-03-23T09:20:21;2.47;;;1.23;;
13793;SDS011;31160;49.500;7.772;2023-03-23T09:22:50;2.10;;;1.10;;
13793;SDS011;31160;49.500;7.772;2023-03-23T09:25:18;1.60;;;1.00;;
13793;SDS011;31160;49.500;7.772;2023-03-23T09:27:51;2.17;;;0.97;;
13793;SDS011;31160;49.500;7.772;2023-03-23T09:30:22;1.60;;;1.10;;
13793;SDS011;31160;49.500;7.772;2023-03-23T09:32:51;1.57;;;1.10;;
13793;SDS011;31160;49.500;7.772;2023-03-23T09:35:18;2.90;;;1.10;;
13793;SDS011;31160;49.500;7.772;2023-03-23T09:37:44;1.40;;;0.90;;
13793;SDS011;31160;49.500;7.772;2023-03-23T09:40:15;2.20;;;1.13;;
13793;SDS011;31160;49.500;7.772;2023-03-23T09:45:51;2.30;;;1.03;;
13793;SDS011;31160;49.500;7.772;2023-03-23T09:48:53;4.07;;;1.10;;
13793;SDS011;31160;49.500;7.772;2023-03-23T09:51:41;2.97;;;0.90;;
13793;SDS011;31160;49.500;7.772;2023-03-23T09:56:46;1.57;;;1.00;;
13793;SDS011;31160;49.500;7.772;2023-03-23T10:01:59;1.03;;;0.90;;
13793;SDS011;31160;49.500;7.772;2023-03-23T10:04:49;2.43;;;0.97;;
13793;SDS011;31160;49.500;7.772;2023-03-23T10:07:21;1.20;;;1.10;;
13793;SDS011;31160;49.500;7.772;2023-03-23T10:09:50;1.47;;;1.00;;
13793;SDS011;31160;49.500;7.772;2023-03-23T10:12:21;1.33;;;0.90;;
13793;SDS011;31160;49.500;7.772;2023-03-23T10:15:15;3.37;;;0.90;;
13793;SDS011;31160;49.500;7.772;2023-03-23T10:17:50;1.47;;;0.90;;
13793;SDS011;31160;49.500;7.772;2023-03-23T10:29:36;3.23;;;0.90;;
13793;SDS011;31160;49.500;7.772;2023-03-23T10:32:04;1.60;;;0.90;;
13793;SDS011;31160;49.500;7.772;2023-03-23T10:34:45;1.93;;;1.10;;
13793;SDS011;31160;49.500;7.772;2023-03-23T10:37:13;1.80;;;0.90;;
13793;SDS011;31160;49.500;7.772;2023-03-23T10:39:55;1.60;;;1.03;;
13793;SDS011;31160;49.500;7.772;2023-03-23T10:44:53;1.53;;;0.83;;
13793;SDS011;31160;49.500;7.772;2023-03-23T10:47:21;3.00;;;1.17;;
13793;SDS011;31160;49.500;7.772;2023-03-23T10:49:58;1.73;;;1.00;;
13793;SDS011;31160;49.500;7.772;2023-03-23T10:52:29;1.90;;;0.90;;
13793;SDS011;31160;49.500;7.772;2023-03-23T10:57:38;1.80;;;0.93;;
13793;SDS011;31160;49.500;7.772;2023-03-23T11:00:20;0.93;;;0.63;;
13793;SDS011;31160;49.500;7.772;2023-03-23T11:02:58;2.70;;;0.80;;
13793;SDS011;31160;49.500;7.772;2023-03-23T11:05:59;1.30;;;0.87;;
13793;SDS011;31160;49.500;7.772;2023-03-23T11:08:27;1.80;;;0.80;;
13793;SDS011;31160;49.500;7.772;2023-03-23T11:11:07;1.60;;;0.87;;
13793;SDS011;31160;49.500;7.772;2023-03-23T11:13:49;0.60;;;0.50;;
13793;SDS011;31160;49.500;7.772;2023-03-23T11:16:32;1.57;;;0.73;;
13793;SDS011;31160;49.500;7.772;2023-03-23T11:19:11;2.43;;;1.70;;
13793;SDS011;31160;49.500;7.772;2023-03-23T11:21:39;1.20;;;0.97;;
13793;SDS011;31160;49.500;7.772;2023-03-23T11:24:11;0.83;;;0.80;;
13793;SDS011;31160;49.500;7.772;2023-03-23T11:26:37;0.63;;;0.63;;
13793;SDS011;31160;49.500;7.772;2023-03-23T11:31:49;1.43;;;0.90;;
13793;SDS011;31160;49.500;7.772;2023-03-23T11:34:21;0.90;;;0.67;;
13793;SDS011;31160;49.500;7.772;2023-03-23T11:39:25;1.33;;;0.60;;
13793;SDS011;31160;49.500;7.772;2023-03-23T11:41:51;0.80;;;0.70;;
13793;SDS011;31160;49.500;7.772;2023-03-23T11:44:19;1.43;;;1.03;;
13793;SDS011;31160;49.500;7.772;2023-03-23T11:55:12;1.03;;;0.70;;
13793;SDS011;31160;49.500;7.772;2023-03-23T11:57:47;0.93;;;0.77;;
13793;SDS011;31160;49.500;7.772;2023-03-23T12:00:18;1.83;;;0.90;;
13793;SDS011;31160;49.500;7.772;2023-03-23T12:02:59;0.83;;;0.60;;
13793;SDS011;31160;49.500;7.772;2023-03-23T12:08:38;2.87;;;0.90;;
13793;SDS011;31160;49.500;7.772;2023-03-23T12:11:27;2.40;;;0.70;;
13793;SDS011;31160;49.500;7.772;2023-03-23T12:17:12;0.87;;;0.50;;
13793;SDS011;31160;49.500;7.772;2023-03-23T12:27:57;2.07;;;1.00;;
13793;SDS011;31160;49.500;7.772;2023-03-23T12:33:33;1.80;;;0.90;;
13793;SDS011;31160;49.500;7.772;2023-03-23T12:42:04;2.97;;;0.53;;
13793;SDS011;31160;49.500;7.772;2023-03-23T12:44:38;1.10;;;0.70;;
13793;SDS011;31160;49.500;7.772;2023-03-23T12:47:20;2.47;;;0.60;;
13793;SDS011;31160;49.500;7.772;2023-03-23T12:50:22;8.03;;;3.50;;
13793;SDS011;31160;49.500;7.772;2023-03-23T12:53:11;2.63;;;0.97;;
13793;SDS011;31160;49.500;7.772;2023-03-23T12:56:03;1.43;;;0.60;;
13793;SDS011;31160;49.500;7.772;2023-03-23T12:58:51;1.70;;;0.67;;
13793;SDS011;31160;49.500;7.772;2023-03-23T13:01:28;1.00;;;0.70;;
13793;SDS011;31160;49.500;7.772;2023-03-23T13:04:06;0.90;;;0.70;;
13793;SDS011;31160;49.500;7.772;2023-03-23T13:06:46;0.87;;;0.50;;
13793;SDS011;31160;49.500;7.772;2023-03-23T13:11:47;1.20;;;0.70;;
13793;SDS011;31160;49.500;7.772;2023-03-23T13:14:24;2.20;;;0.70;;
13793;SDS011;31160;49.500;7.772;2023-03-23T13:19:35;1.83;;;0.60;;
13793;SDS011;31160;49.500;7.772;2023-03-23T13:22:14;0.77;;;0.60;;
13793;SDS011;31160;49.500;7.772;2023-03-23T13:24:50;1.27;;;0.70;;
13793;SDS011;31160;49.500;7.772;2023-03-23T13:27:25;2.73;;;0.90;;
13793;SDS011;31160;49.500;7.772;2023-03-23T13:29:55;2.80;;;1.10;;
13793;SDS011;31160;49.500;7.772;2023-03-23T13:32:44;1.50;;;0.70;;
13793;SDS011;31160;49.500;7.772;2023-03-23T13:35:14;1.23;;;0.73;;
13793;SDS011;31160;49.500;7.772;2023-03-23T13:37:46;0.73;;;0.60;;
13793;SDS011;31160;49.500;7.772;2023-03-23T13:40:30;1.53;;;0.60;;
13793;SDS011;31160;49.500;7.772;2023-03-23T13:43:00;1.27;;;1.07;;
13793;SDS011;31160;49.500;7.772;2023-03-23T13:48:28;1.57;;;0.90;;
13793;SDS011;31160;49.500;7.772;2023-03-23T13:53:29;2.13;;;1.00;;
13793;SDS011;31160;49.500;7.772;2023-03-23T13:58:48;2.90;;;1.30;;
13793;SDS011;31160;49.500;7.772;2023-03-23T14:01:18;2.00;;;1.00;;
13793;SDS011;31160;49.500;7.772;2023-03-23T14:03:58;2.23;;;1.27;;
13793;SDS011;31160;49.500;7.772;2023-03-23T14:06:26;1.53;;;1.13;;
13793;SDS011;31160;49.500;7.772;2023-03-23T14:09:23;4.27;;;1.83;;
13793;SDS011;31160;49.500;7.772;2023-03-23T14:11:58;2.30;;;1.20;;
13793;SDS011;31160;49.500;7.772;2023-03-23T14:15:18;1.87;;;1.07;;
13793;SDS011;31160;49.500;7.772;2023-03-23T14:17:31;6.47;;;4.73;;
13793;SDS011;31160;49.500;7.772;2023-03-23T14:20:05;2.27;;;1.10;;
13793;SDS011;31160;49.500;7.772;2023-03-23T14:22:38;1.10;;;1.00;;
13793;SDS011;31160;49.500;7.772;2023-03-23T14:25:17;1.57;;;0.70;;
13793;SDS011;31160;49.500;7.772;2023-03-23T14:27:46;1.33;;;0.90;;
13793;SDS011;31160;49.500;7.772;2023-03-23T14:30:16;1.87;;;1.10;;
13793;SDS011;31160;49.500;7.772;2023-03-23T14:32:46;1.83;;;0.77;;
13793;SDS011;31160;49.500;7.772;2023-03-23T14:35:17;1.97;;;1.20;;
13793;SDS011;31160;49.500;7.772;2023-03-23T14:38:17;1.77;;;0.80;;
13793;SDS011;31160;49.500;7.772;2023-03-23T14:40:48;1.60;;;1.00;;
13793;SDS011;31160;49.500;7.772;2023-03-23T14:43:15;2.73;;;1.30;;
13793;SDS011;31160;49.500;7.772;2023-03-23T14:45:44;3.77;;;1.40;;
13793;SDS011;31160;49.500;7.772;2023-03-23T14:48:13;1.50;;;1.03;;
13793;SDS011;31160;49.500;7.772;2023-03-23T14:50:51;2.00;;;1.37;;
13793;SDS011;31160;49.500;7.772;2023-03-23T14:56:10;2.87;;;1.27;;
13793;SDS011;31160;49.500;7.772;2023-03-23T14:58:45;3.30;;;1.20;;
13793;SDS011;31160;49.500;7.772;2023-03-23T15:01:13;2.97;;;0.90;;
13793;SDS011;31160;49.500;7.772;2023-03-23T15:03:49;2.73;;;0.83;;
13793;SDS011;31160;49.500;7.772;2023-03-23T15:06:20;2.00;;;1.20;;
13793;SDS011;31160;49.500;7.772;2023-03-23T15:08:48;2.27;;;1.17;;
13793;SDS011;31160;49.500;7.772;2023-03-23T15:13:51;2.97;;;0.90;;
13793;SDS011;31160;49.500;7.772;2023-03-23T15:16:21;2.13;;;1.10;;
13793;SDS011;31160;49.500;7.772;2023-03-23T15:18:56;1.57;;;0.90;;
13793;SDS011;31160;49.500;7.772;2023-03-23T15:23:54;2.20;;;1.27;;
13793;SDS011;31160;49.500;7.772;2023-03-23T15:26:26;2.13;;;1.10;;
13793;SDS011;31160;49.500;7.772;2023-03-23T15:31:41;4.43;;;1.10;;
13793;SDS011;31160;49.500;7.772;2023-03-23T15:34:14;1.83;;;1.20;;
13793;SDS011;31160;49.500;7.772;2023-03-23T15:36:45;2.23;;;0.90;;
13793;SDS011;31160;49.500;7.772;2023-03-23T15:39:14;1.60;;;1.00;;
13793;SDS011;31160;49.500;7.772;2023-03-23T15:41:47;1.70;;;1.40;;
13793;SDS011;31160;49.500;7.772;2023-03-23T15:44:22;1.10;;;0.83;;
13793;SDS011;31160;49.500;7.772;2023-03-23T15:46:50;4.93;;;0.93;;
13793;SDS011;31160;49.500;7.772;2023-03-23T15:49:18;2.70;;;1.27;;
13793;SDS011;31160;49.500;7.772;2023-03-23T15:51:44;3.37;;;1.70;;
13793;SDS011;31160;49.500;7.772;2023-03-23T15:54:13;4.07;;;1.90;;
13793;SDS011;31160;49.500;7.772;2023-03-23T15:56:41;2.67;;;1.87;;
13793;SDS011;31160;49.500;7.772;2023-03-23T15:59:08;3.77;;;2.07;;
13793;SDS011;31160;49.500;7.772;2023-03-23T16:01:36;3.37;;;1.83;;
13793;SDS011;31160;49.500;7.772;2023-03-23T16:06:33;3.23;;;1.60;;
13793;SDS011;31160;49.500;7.772;2023-03-23T16:09:01;3.17;;;1.50;;
13793;SDS011;31160;49.500;7.772;2023-03-23T16:11:30;5.47;;;1.90;;
13793;SDS011;31160;49.500;7.772;2023-03-23T16:13:58;3.20;;;1.60;;
13793;SDS011;31160;49.500;7.772;2023-03-23T16:16:28;3.27;;;1.50;;
13793;SDS011;31160;49.500;7.772;2023-03-23T16:18:57;2.37;;;1.23;;
13793;SDS011;31160;49.500;7.772;2023-03-23T16:21:24;1.93;;;1.27;;
13793;SDS011;31160;49.500;7.772;2023-03-23T16:23:51;4.67;;;1.80;;
13793;SDS011;31160;49.500;7.772;2023-03-23T16:26:18;2.30;;;1.10;;
13793;SDS011;31160;49.500;7.772;2023-03-23T16:28:44;2.30;;;0.97;;
13793;SDS011;31160;49.500;7.772;2023-03-23T16:31:11;1.53;;;1.17;;
13793;SDS011;31160;49.500;7.772;2023-03-23T16:33:38;7.30;;;3.00;;
13793;SDS011;31160;49.500;7.772;2023-03-23T16:36:05;2.20;;;1.80;;
13793;SDS011;31160;49.500;7.772;2023-03-23T16:38:32;2.50;;;1.80;;
13793;SDS011;31160;49.500;7.772;2023-03-23T16:41:15;6.13;;;2.40;;
13793;SDS011;31160;49.500;7.772;2023-03-23T16:43:42;3.97;;;1.80;;
13793;SDS011;31160;49.500;7.772;2023-03-23T16:46:09;4.67;;;1.87;;
13793;SDS011;31160;49.500;7.772;2023-03-23T16:48:38;6.33;;;3.00;;
13793;SDS011;31160;49.500;7.772;2023-03-23T16:51:05;5.73;;;1.90;;
13793;SDS011;31160;49.500;7.772;2023-03-23T16:53:32;2.43;;;1.57;;
13793;SDS011;31160;49.500;7.772;2023-03-23T16:55:59;2.20;;;1.33;;
13793;SDS011;31160;49.500;7.772;2023-03-23T16:58:26;1.97;;;1.30;;
13793;SDS011;31160;49.500;7.772;2023-03-23T17:00:53;2.63;;;1.40;;
13793;SDS011;31160;49.500;7.772;2023-03-23T17:03:20;3.73;;;2.00;;
13793;SDS011;31160;49.500;7.772;2023-03-23T17:05:49;3.40;;;1.80;;
13793;SDS011;31160;49.500;7.772;2023-03-23T17:08:17;3.50;;;1.50;;
13793;SDS011;31160;49.500;7.772;2023-03-23T17:10:44;4.07;;;1.83;;
13793;SDS011;31160;49.500;7.772;2023-03-23T17:13:11;2.20;;;1.17;;